createdAt,value
2019-05-12T00:01:23.918Z,88.70
2019-05-12T00:03:27.804Z,88.50
2019-05-12T00:05:31.681Z,88.50
2019-05-12T00:07:37.941Z,88.60
2019-05-12T00:09:41.151Z,89.10
2019-05-12T00:11:45.055Z,89.40
2019-05-12T00:13:49.059Z,90.00
2019-05-12T00:15:52.940Z,89.90
2019-05-12T00:17:58.590Z,89.90
2019-05-12T00:20:02.328Z,89.90
2019-05-12T00:22:07.691Z,90.10
2019-05-12T00:24:11.858Z,90.10
2019-05-12T00:26:15.883Z,90.10
2019-05-12T00:28:19.846Z,90.00
2019-05-12T00:30:40.694Z,90.10
2019-05-12T00:32:44.547Z,90.20
2019-05-12T00:34:48.459Z,90.20
2019-05-12T00:36:52.395Z,90.30
2019-05-12T00:38:58.036Z,90.20
2019-05-12T00:41:01.789Z,90.20
2019-05-12T00:43:08.427Z,90.20
2019-05-12T00:45:11.454Z,90.30
2019-05-12T00:47:18.619Z,90.10
2019-05-12T00:49:22.284Z,90.10
2019-05-12T00:51:28.612Z,90.10
2019-05-12T00:53:39.970Z,90.10
2019-05-12T00:55:38.038Z,90.00
2019-05-12T00:57:42.535Z,90.10
2019-05-12T00:59:47.785Z,90.20
2019-05-12T01:01:51.971Z,90.20
2019-05-12T01:03:57.959Z,90.20
2019-05-12T01:06:01.409Z,90.20
2019-05-12T01:08:05.421Z,90.20
2019-05-12T01:10:10.079Z,90.40
2019-05-12T01:12:14.109Z,90.40
2019-05-12T01:14:18.653Z,90.40
2019-05-12T01:16:22.698Z,90.30
2019-05-12T01:18:28.113Z,90.40
2019-05-12T01:20:32.189Z,90.50
2019-05-12T01:22:38.359Z,90.40
2019-05-12T01:24:41.713Z,90.50
2019-05-12T01:26:47.538Z,90.60
2019-05-12T01:28:51.218Z,90.50
2019-05-12T01:30:58.206Z,90.50
2019-05-12T01:33:02.291Z,90.60
2019-05-12T01:35:08.158Z,90.60
2019-05-12T01:37:22.885Z,90.70
2019-05-12T01:39:27.708Z,90.60
2019-05-12T01:41:31.661Z,90.60
2019-05-12T01:43:35.546Z,90.80
2019-05-12T01:45:42.190Z,90.60
2019-05-12T01:47:48.442Z,90.60
2019-05-12T01:49:51.759Z,90.80
2019-05-12T01:51:58.058Z,90.90
2019-05-12T01:54:11.047Z,90.80
2019-05-12T01:56:07.862Z,91.00
2019-05-12T01:58:11.888Z,90.90
2019-05-12T02:00:18.277Z,90.90
2019-05-12T02:02:22.355Z,90.90
2019-05-12T02:04:28.473Z,91.00
2019-05-12T02:06:32.456Z,91.00
2019-05-12T02:08:38.358Z,91.00
2019-05-12T02:10:42.793Z,90.90
2019-05-12T02:12:48.899Z,91.10
2019-05-12T02:14:52.321Z,91.10
2019-05-12T02:16:58.076Z,91.30
2019-05-12T02:19:01.781Z,91.40
2019-05-12T02:21:18.912Z,91.40
2019-05-12T02:23:23.819Z,91.50
2019-05-12T02:25:28.817Z,91.60
2019-05-12T02:27:33.060Z,91.50
2019-05-12T02:29:38.450Z,91.50
2019-05-12T02:31:42.699Z,91.40
2019-05-12T02:33:46.577Z,91.20
2019-05-12T02:35:50.447Z,91.40
2019-05-12T02:37:55.192Z,91.50
2019-05-12T02:39:59.278Z,91.40
2019-05-12T02:42:05.066Z,91.30
2019-05-12T02:44:08.675Z,91.40
2019-05-12T02:46:15.249Z,91.70
2019-05-12T02:48:18.155Z,91.60
2019-05-12T02:50:36.945Z,91.50
2019-05-12T02:52:44.270Z,91.50
2019-05-12T02:54:56.928Z,91.60
2019-05-12T02:56:57.815Z,91.50
2019-05-12T02:59:05.160Z,91.50
2019-05-12T03:01:09.304Z,91.60
2019-05-12T03:03:16.564Z,91.60
2019-05-12T03:05:20.872Z,91.60
2019-05-12T03:07:27.707Z,91.40
2019-05-12T03:09:35.145Z,91.30
2019-05-12T03:11:38.223Z,91.30
2019-05-12T03:13:44.784Z,91.30
2019-05-12T03:15:47.592Z,91.20
2019-05-12T03:17:54.449Z,91.20
2019-05-12T03:19:57.002Z,91.10
2019-05-12T03:22:00.884Z,91.00
2019-05-12T03:24:06.293Z,90.90
2019-05-12T03:26:10.689Z,91.00
2019-05-12T03:28:16.259Z,90.80
2019-05-12T03:30:20.361Z,90.70
2019-05-12T03:32:27.701Z,90.80
2019-05-12T03:34:30.118Z,90.70
2019-05-12T03:36:41.257Z,90.50
2019-05-12T03:38:39.778Z,90.60
2019-05-12T03:40:45.114Z,90.40
2019-05-12T03:42:49.325Z,90.40
2019-05-12T03:44:54.687Z,90.20
2019-05-12T03:46:58.806Z,90.30
2019-05-12T03:49:05.229Z,90.30
2019-05-12T03:51:08.292Z,90.30
2019-05-12T03:53:15.108Z,90.40
2019-05-12T03:55:34.278Z,90.40
2019-05-12T03:57:25.329Z,90.50
2019-05-12T03:59:28.800Z,90.40
2019-05-12T04:01:35.864Z,90.60
2019-05-12T04:03:38.929Z,90.80
2019-05-12T04:05:45.176Z,91.10
2019-05-12T04:07:48.329Z,91.50
2019-05-12T04:09:54.529Z,91.40
2019-05-12T04:11:57.725Z,91.80
2019-05-12T04:14:01.670Z,92.00
2019-05-12T04:16:05.522Z,92.20
2019-05-12T04:18:09.503Z,92.40
2019-05-12T04:20:15.328Z,92.60
2019-05-12T04:22:18.905Z,92.60
2019-05-12T04:24:24.941Z,92.70
2019-05-12T04:26:28.336Z,93.00
2019-05-12T04:28:35.064Z,93.00
2019-05-12T04:30:37.751Z,93.20
2019-05-12T04:32:44.812Z,93.20
2019-05-12T04:34:47.153Z,93.20
2019-05-12T04:36:51.102Z,93.10
2019-05-12T04:38:55.794Z,93.20
2019-05-12T04:40:59.859Z,93.00
2019-05-12T04:43:05.769Z,93.00
2019-05-12T04:45:09.483Z,92.70
2019-05-12T04:47:14.629Z,92.70
2019-05-12T04:49:18.704Z,92.90
2019-05-12T04:51:24.972Z,92.50
2019-05-12T04:53:28.504Z,92.10
2019-05-12T04:55:35.270Z,92.30
2019-05-12T04:57:37.843Z,92.40
2019-05-12T04:59:44.842Z,92.20
2019-05-12T05:01:47.295Z,92.30
2019-05-12T05:03:51.159Z,92.60
2019-05-12T05:05:55.142Z,92.50
2019-05-12T05:07:59.013Z,92.60
2019-05-12T05:10:04.752Z,92.40
2019-05-12T05:12:08.740Z,92.40
2019-05-12T05:14:14.322Z,92.80
2019-05-12T05:16:18.136Z,93.10
2019-05-12T05:18:23.872Z,93.10
2019-05-12T05:20:27.522Z,93.50
2019-05-12T05:22:33.269Z,93.40
2019-05-12T05:24:36.859Z,93.80
2019-05-12T05:26:43.782Z,93.80
2019-05-12T05:28:47.723Z,93.60
2019-05-12T05:30:53.483Z,94.00
2019-05-12T05:32:57.154Z,94.00
2019-05-12T05:35:03.956Z,94.00
2019-05-12T05:37:06.915Z,94.30
2019-05-12T05:39:13.687Z,94.30
2019-05-12T05:41:16.547Z,94.00
2019-05-12T05:43:20.546Z,94.20
2019-05-12T05:45:26.490Z,94.30
2019-05-12T05:47:29.879Z,94.20
2019-05-12T05:49:34.262Z,94.40
2019-05-12T05:51:44.398Z,94.20
2019-05-12T05:53:44.349Z,94.40
2019-05-12T05:55:50.319Z,94.50
2019-05-12T05:57:54.041Z,94.40
2019-05-12T05:59:57.912Z,94.60
2019-05-12T06:02:01.737Z,94.50
2019-05-12T06:04:08.600Z,94.50
2019-05-12T06:06:12.536Z,94.60
2019-05-12T06:08:20.778Z,94.50
2019-05-12T06:10:34.751Z,94.90
2019-05-12T06:12:27.732Z,95.00
2019-05-12T06:14:34.063Z,95.10
2019-05-12T06:16:37.222Z,95.20
2019-05-12T06:18:41.077Z,95.20
2019-05-12T06:20:44.979Z,95.00
2019-05-12T06:22:54.623Z,95.20
2019-05-12T06:24:58.753Z,95.20
2019-05-12T06:27:00.815Z,94.70
2019-05-12T06:29:04.944Z,94.80
2019-05-12T06:31:08.810Z,95.10
2019-05-12T06:33:14.432Z,95.30
2019-05-12T06:35:18.435Z,95.50
2019-05-12T06:37:23.645Z,95.60
2019-05-12T06:39:27.760Z,95.80
2019-05-12T06:41:33.652Z,95.70
2019-05-12T06:43:40.675Z,95.70
2019-05-12T06:45:46.648Z,95.80
2019-05-12T06:47:53.342Z,95.80
2019-05-12T06:49:58.105Z,95.70
2019-05-12T06:52:06.323Z,95.70
2019-05-12T06:54:12.010Z,95.70
2019-05-12T06:56:15.473Z,95.70
2019-05-12T06:58:26.016Z,95.70
2019-05-12T07:00:30.602Z,95.90
2019-05-12T07:02:38.633Z,95.70
2019-05-12T07:04:41.330Z,96.00
2019-05-12T07:06:44.145Z,96.20
2019-05-12T07:09:02.052Z,96.20
2019-05-12T07:11:01.941Z,96.40
2019-05-12T07:13:04.538Z,96.20
2019-05-12T07:15:05.482Z,96.00
2019-05-12T07:17:11.001Z,96.30
2019-05-12T07:19:21.216Z,96.40
2019-05-12T07:21:24.142Z,96.30
2019-05-12T07:23:30.222Z,96.30
2019-05-12T07:25:36.373Z,96.40
2019-05-12T07:27:39.694Z,96.20
2019-05-12T07:29:43.686Z,96.30
2019-05-12T07:31:47.671Z,96.40
2019-05-12T07:33:54.003Z,96.00
2019-05-12T07:36:01.160Z,96.10
2019-05-12T07:38:04.835Z,96.10
2019-05-12T07:40:09.158Z,95.80
2019-05-12T07:42:14.090Z,96.40
2019-05-12T07:44:22.183Z,96.20
2019-05-12T07:46:27.897Z,96.30
2019-05-12T07:48:33.248Z,96.40
2019-05-12T07:50:36.872Z,96.50
2019-05-12T07:52:40.681Z,96.40
2019-05-12T07:54:44.648Z,96.40
2019-05-12T07:56:48.490Z,96.20
2019-05-12T07:58:56.531Z,96.30
2019-05-12T08:01:02.319Z,96.40
2019-05-12T08:03:08.170Z,96.20
2019-05-12T08:05:11.135Z,96.40
2019-05-12T08:07:19.872Z,96.60
2019-05-12T08:09:24.045Z,96.50
2019-05-12T08:11:28.772Z,96.50
2019-05-12T08:13:37.771Z,96.60
2019-05-12T08:15:39.772Z,96.50
2019-05-12T08:17:44.055Z,96.60
2019-05-12T08:19:48.170Z,96.60
2019-05-12T08:21:53.741Z,96.50
2019-05-12T08:23:57.675Z,96.60
2019-05-12T08:26:03.442Z,96.50
2019-05-12T08:28:18.360Z,96.70
2019-05-12T08:30:13.832Z,96.50
2019-05-12T08:32:20.071Z,96.60
2019-05-12T08:34:23.753Z,96.60
2019-05-12T08:36:27.740Z,96.80
2019-05-12T08:38:33.714Z,96.50
2019-05-12T08:40:46.500Z,96.60
2019-05-12T08:42:43.695Z,96.60
2019-05-12T08:44:47.891Z,96.70
2019-05-12T08:46:54.216Z,96.50
2019-05-12T08:49:02.197Z,96.60
2019-05-12T08:51:05.288Z,96.80
2019-05-12T08:53:13.931Z,96.50
2019-05-12T08:55:16.816Z,96.50
2019-05-12T08:57:19.567Z,96.70
2019-05-12T08:59:27.103Z,96.80
2019-05-12T09:01:30.786Z,96.70
2019-05-12T09:03:34.438Z,96.70
2019-05-12T09:05:38.881Z,96.40
2019-05-12T09:07:43.711Z,96.60
2019-05-12T09:09:47.594Z,96.70
2019-05-12T09:11:51.467Z,96.40
2019-05-12T09:14:00.635Z,96.60
2019-05-12T09:16:00.968Z,96.70
2019-05-12T09:18:05.230Z,96.50
2019-05-12T09:20:09.327Z,96.20
2019-05-12T09:22:16.988Z,96.40
2019-05-12T09:24:21.735Z,96.40
2019-05-12T09:26:28.270Z,96.50
2019-05-12T09:28:43.635Z,96.70
2019-05-12T09:30:40.051Z,96.80
2019-05-12T09:32:45.454Z,96.50
2019-05-12T09:34:52.621Z,96.30
2019-05-12T09:36:59.630Z,96.50
2019-05-12T09:39:01.633Z,96.70
2019-05-12T09:41:05.259Z,96.10
2019-05-12T09:43:10.759Z,96.30
2019-05-12T09:45:17.307Z,96.40
2019-05-12T09:47:25.077Z,96.40
2019-05-12T09:49:36.745Z,96.50
2019-05-12T09:51:41.185Z,96.20
2019-05-12T09:53:42.828Z,96.40
2019-05-12T09:55:45.379Z,96.50
2019-05-12T09:57:50.729Z,96.20
2019-05-12T09:59:58.233Z,96.40
2019-05-12T10:02:00.111Z,96.20
2019-05-12T10:04:04.004Z,96.00
2019-05-12T10:06:11.477Z,95.90
2019-05-12T10:08:14.016Z,96.20
2019-05-12T10:10:17.987Z,96.10
2019-05-12T10:12:21.839Z,96.30
2019-05-12T10:14:25.661Z,96.50
2019-05-12T10:16:29.538Z,96.30
2019-05-12T10:18:33.726Z,96.10
2019-05-12T10:20:39.827Z,96.50
2019-05-12T10:22:43.891Z,96.40
2019-05-12T10:24:56.077Z,95.80
2019-05-12T10:26:54.150Z,96.00
2019-05-12T10:29:06.855Z,96.40
2019-05-12T10:31:04.281Z,96.30
2019-05-12T10:33:08.214Z,96.20
2019-05-12T10:35:21.037Z,96.10
2019-05-12T10:37:19.333Z,95.80
2019-05-12T10:39:24.433Z,96.20
2019-05-12T10:41:28.548Z,95.70
2019-05-12T10:43:34.213Z,95.80
2019-05-12T10:45:38.353Z,95.90
2019-05-12T10:47:42.241Z,96.00
2019-05-12T10:49:46.126Z,96.00
2019-05-12T10:51:50.008Z,95.90
2019-05-12T10:53:57.395Z,96.00
2019-05-12T10:55:59.517Z,95.90
2019-05-12T10:58:06.797Z,96.00
2019-05-12T11:00:11.295Z,96.10
2019-05-12T11:02:15.224Z,95.80
2019-05-12T11:04:25.062Z,95.80
2019-05-12T11:06:24.611Z,95.90
2019-05-12T11:08:28.499Z,95.90
2019-05-12T11:10:34.011Z,96.10
2019-05-12T11:12:37.864Z,96.30
2019-05-12T11:14:43.889Z,96.00
2019-05-12T11:16:47.298Z,96.00
2019-05-12T11:18:51.166Z,96.10
2019-05-12T11:20:55.056Z,95.80
2019-05-12T11:22:58.908Z,95.80
2019-05-12T11:25:04.359Z,95.70
2019-05-12T11:27:08.415Z,95.70
2019-05-12T11:29:14.151Z,95.50
2019-05-12T11:31:17.792Z,95.70
2019-05-12T11:33:23.654Z,96.00
2019-05-12T11:35:27.210Z,95.50
2019-05-12T11:37:31.119Z,95.40
2019-05-12T11:39:38.820Z,95.70
2019-05-12T11:41:40.499Z,95.10
2019-05-12T11:43:44.399Z,95.30
2019-05-12T11:45:48.581Z,95.70
2019-05-12T11:47:59.216Z,95.40
2019-05-12T11:49:58.476Z,94.90
2019-05-12T11:52:09.192Z,95.10
2019-05-12T11:54:13.455Z,94.50
2019-05-12T11:56:14.756Z,95.30
2019-05-12T11:58:18.641Z,95.00
2019-05-12T12:00:24.270Z,95.20
2019-05-12T12:02:30.415Z,95.00
2019-05-12T12:04:45.657Z,94.70
2019-05-12T12:06:49.490Z,94.90
2019-05-12T12:08:53.773Z,94.50
2019-05-12T12:10:57.889Z,94.50
2019-05-12T12:13:03.518Z,94.60
2019-05-12T12:15:07.421Z,94.50
2019-05-12T12:17:13.503Z,94.20
2019-05-12T12:19:16.819Z,94.10
2019-05-12T12:21:20.795Z,94.10
2019-05-12T12:23:24.667Z,94.50
2019-05-12T12:25:34.072Z,94.30
2019-05-12T12:27:37.467Z,93.70
2019-05-12T12:29:43.722Z,94.40
2019-05-12T12:31:48.657Z,93.80
2019-05-12T12:33:53.630Z,93.90
2019-05-12T12:36:00.695Z,93.90
2019-05-12T12:38:03.715Z,93.40
2019-05-12T12:40:08.167Z,93.70
2019-05-12T12:42:13.867Z,93.30
2019-05-12T12:44:17.624Z,93.10
2019-05-12T12:46:24.378Z,93.20
2019-05-12T12:48:29.925Z,92.80
2019-05-12T12:50:34.340Z,93.00
2019-05-12T12:52:38.749Z,93.10
2019-05-12T12:54:43.956Z,93.40
2019-05-12T12:56:48.236Z,93.70
2019-05-12T12:58:52.168Z,93.80
2019-05-12T13:00:56.983Z,93.40
2019-05-12T13:03:01.110Z,93.60
2019-05-12T13:05:05.660Z,93.70
2019-05-12T13:07:09.570Z,93.50
2019-05-12T13:09:23.996Z,93.50
2019-05-12T13:11:30.534Z,94.20
2019-05-12T13:13:24.755Z,94.50
2019-05-12T13:15:28.932Z,94.50
2019-05-12T13:17:40.136Z,94.60
2019-05-12T13:19:39.802Z,94.60
2019-05-12T13:21:43.993Z,94.80
2019-05-12T13:23:51.164Z,94.70
2019-05-12T13:25:55.154Z,94.60
2019-05-12T13:28:01.451Z,94.20
2019-05-12T13:30:16.292Z,94.70
2019-05-12T13:32:25.839Z,94.20
2019-05-12T13:34:28.890Z,94.10
2019-05-12T13:36:35.432Z,94.10
2019-05-12T13:38:40.473Z,94.80
2019-05-12T13:40:44.239Z,94.50
2019-05-12T13:42:48.308Z,94.50
2019-05-12T13:44:52.252Z,94.50
2019-05-12T13:46:58.805Z,94.40
2019-05-12T13:49:03.263Z,94.30
2019-05-12T13:51:12.330Z,94.40
2019-05-12T13:53:13.928Z,94.30
2019-05-12T13:55:19.144Z,93.80
2019-05-12T13:57:23.563Z,93.80
2019-05-12T13:59:27.854Z,93.90
2019-05-12T14:01:39.873Z,93.30
2019-05-12T14:03:40.008Z,93.70
2019-05-12T14:05:50.348Z,93.40
2019-05-12T14:07:50.004Z,93.60
2019-05-12T14:09:54.213Z,93.40
2019-05-12T14:11:58.149Z,93.10
2019-05-12T14:14:10.783Z,93.00
2019-05-12T14:16:07.584Z,93.10
2019-05-12T14:18:16.463Z,93.00
2019-05-12T14:20:20.180Z,92.90
2019-05-12T14:22:26.405Z,92.30
2019-05-12T14:24:33.235Z,92.80
2019-05-12T14:26:34.243Z,92.30
2019-05-12T14:28:39.361Z,92.30
2019-05-12T14:30:47.433Z,92.30
2019-05-12T14:32:55.180Z,91.90
2019-05-12T14:35:00.635Z,92.10
2019-05-12T14:37:08.507Z,92.20
2019-05-12T14:39:13.137Z,91.60
2019-05-12T14:41:19.467Z,91.80
2019-05-12T14:43:24.187Z,91.90
2019-05-12T14:45:29.899Z,91.90
2019-05-12T14:47:34.053Z,92.00
2019-05-12T14:49:37.964Z,91.80
2019-05-12T14:51:44.043Z,91.90
2019-05-12T14:53:48.116Z,91.60
2019-05-12T14:55:53.552Z,91.80
2019-05-12T14:57:57.755Z,91.50
2019-05-12T15:00:03.817Z,91.60
2019-05-12T15:02:07.236Z,91.20
2019-05-12T15:04:13.145Z,91.30
2019-05-12T15:06:19.526Z,91.40
2019-05-12T15:08:35.294Z,91.50
2019-05-12T15:10:27.656Z,91.40
2019-05-12T15:12:34.676Z,91.60
2019-05-12T15:14:39.979Z,91.60
2019-05-12T15:16:44.842Z,91.90
2019-05-12T15:18:50.128Z,91.80
2019-05-12T15:20:55.664Z,91.50
2019-05-12T15:23:03.514Z,91.30
2019-05-12T15:25:09.027Z,91.30
2019-05-12T15:27:13.445Z,91.30
2019-05-12T15:29:19.910Z,91.60
2019-05-12T15:31:23.629Z,91.90
2019-05-12T15:33:27.636Z,91.70
2019-05-12T15:35:34.406Z,91.60
2019-05-12T15:37:39.094Z,91.80
2019-05-12T15:39:44.027Z,92.20
2019-05-12T15:41:51.095Z,91.70
2019-05-12T15:43:55.716Z,91.50
2019-05-12T15:45:59.671Z,91.00
2019-05-12T15:48:04.156Z,90.30
2019-05-12T15:50:08.609Z,90.60
2019-05-12T15:52:14.281Z,90.40
2019-05-12T15:54:21.142Z,90.40
2019-05-12T15:56:26.337Z,90.50
2019-05-12T15:58:30.470Z,90.30
2019-05-12T16:00:34.778Z,90.30
2019-05-12T16:02:38.668Z,90.40
2019-05-12T16:04:44.455Z,89.70
2019-05-12T16:06:53.831Z,88.70
2019-05-12T16:08:53.618Z,88.30
2019-05-12T16:10:57.484Z,88.60
2019-05-12T16:13:01.405Z,88.50
2019-05-12T16:15:11.335Z,88.70
2019-05-12T16:17:16.877Z,88.60
2019-05-12T16:19:19.663Z,88.80
2019-05-12T16:21:23.588Z,88.50
2019-05-12T16:23:30.089Z,88.90
2019-05-12T16:25:34.126Z,88.80
2019-05-12T16:27:38.149Z,89.00
2019-05-12T16:29:45.411Z,89.10
2019-05-12T16:31:49.775Z,89.00
2019-05-12T16:34:01.258Z,88.90
2019-05-12T16:36:06.651Z,89.30
2019-05-12T16:38:13.882Z,89.10
2019-05-12T16:40:13.550Z,89.90
2019-05-12T16:42:17.048Z,89.40
2019-05-12T16:44:23.080Z,89.40
2019-05-12T16:46:29.346Z,90.00
2019-05-12T16:48:36.072Z,89.80
2019-05-12T16:50:38.810Z,89.40
2019-05-12T16:52:45.056Z,89.20
2019-05-12T16:54:50.532Z,89.70
2019-05-12T16:56:54.433Z,89.50
2019-05-12T16:58:58.275Z,90.10
2019-05-12T17:01:03.787Z,89.40
2019-05-12T17:03:07.755Z,89.70
2019-05-12T17:05:18.218Z,90.00
2019-05-12T17:07:20.851Z,90.10
2019-05-12T17:09:23.999Z,89.90
2019-05-12T17:11:30.992Z,90.20
2019-05-12T17:13:34.039Z,90.20
2019-05-12T17:15:38.005Z,90.20
2019-05-12T17:17:44.812Z,90.00
2019-05-12T17:19:49.032Z,89.60
2019-05-12T17:21:57.650Z,90.00
2019-05-12T17:23:59.652Z,89.60
2019-05-12T17:26:03.927Z,89.60
2019-05-12T17:28:07.946Z,89.40
2019-05-12T17:30:13.502Z,88.40
2019-05-12T17:32:17.703Z,88.90
2019-05-12T17:34:25.176Z,88.80
2019-05-12T17:36:28.260Z,88.30
2019-05-12T17:38:34.102Z,89.50
2019-05-12T17:40:37.683Z,89.20
2019-05-12T17:42:43.848Z,89.20
2019-05-12T17:44:50.433Z,89.20
2019-05-12T17:46:54.458Z,88.80
2019-05-12T17:48:58.315Z,88.70
2019-05-12T17:51:03.327Z,89.20
2019-05-12T17:53:10.062Z,89.50
2019-05-12T17:55:14.975Z,89.30
2019-05-12T17:57:20.028Z,89.20
2019-05-12T17:59:29.150Z,90.00
2019-05-12T18:01:31.120Z,90.00
2019-05-12T18:03:39.364Z,90.40
2019-05-12T18:05:42.533Z,90.20
2019-05-12T18:07:51.079Z,90.10
2019-05-12T18:09:56.785Z,90.10
2019-05-12T18:11:57.948Z,90.40
2019-05-12T18:14:04.076Z,90.40
2019-05-12T18:16:11.626Z,90.70
2019-05-12T18:18:15.373Z,90.90
2019-05-12T18:20:18.522Z,91.10
2019-05-12T18:22:23.576Z,91.10
2019-05-12T18:24:27.629Z,91.00
2019-05-12T18:26:33.848Z,90.90
2019-05-12T18:28:37.863Z,90.70
2019-05-12T18:30:43.427Z,91.20
2019-05-12T18:32:54.928Z,91.40
2019-05-12T18:34:57.945Z,91.60
2019-05-12T18:37:01.832Z,91.80
2019-05-12T18:39:11.446Z,91.90
2019-05-12T18:41:13.935Z,91.90
2019-05-12T18:43:17.908Z,92.00
2019-05-12T18:45:24.056Z,92.30
2019-05-12T18:47:31.723Z,92.10
2019-05-12T18:49:34.257Z,92.10
2019-05-12T18:51:38.263Z,92.20
2019-05-12T18:53:43.804Z,92.40
2019-05-12T18:55:47.941Z,92.30
2019-05-12T18:57:51.751Z,92.20
2019-05-12T19:00:06.492Z,92.40
2019-05-12T19:02:08.595Z,92.60
2019-05-12T19:04:14.328Z,92.30
2019-05-12T19:06:17.976Z,92.20
2019-05-12T19:08:23.625Z,92.20
2019-05-12T19:10:27.599Z,92.40
2019-05-12T19:12:33.318Z,92.30
2019-05-12T19:14:40.509Z,92.40
2019-05-12T19:16:44.162Z,92.30
2019-05-12T19:18:48.112Z,92.30
2019-05-12T19:20:54.146Z,92.30
2019-05-12T19:23:00.019Z,92.50
2019-05-12T19:25:14.414Z,92.50
2019-05-12T19:27:20.731Z,92.60
2019-05-12T19:29:29.609Z,92.50
2019-05-12T19:31:28.420Z,92.30
2019-05-12T19:33:32.307Z,92.50
2019-05-12T19:35:37.923Z,92.60
2019-05-12T19:37:43.052Z,92.60
2019-05-12T19:39:47.293Z,92.60
2019-05-12T19:41:51.166Z,92.60
2019-05-12T19:43:55.165Z,92.40
2019-05-12T19:46:03.674Z,92.40
2019-05-12T19:48:04.974Z,92.40
2019-05-12T19:50:13.085Z,92.30
2019-05-12T19:52:15.139Z,92.10
2019-05-12T19:54:19.434Z,92.10
2019-05-12T19:56:24.516Z,92.20
2019-05-12T19:58:28.360Z,92.10
2019-05-12T20:00:33.498Z,92.10
2019-05-12T20:02:40.907Z,92.10
2019-05-12T20:04:51.630Z,92.20
2019-05-12T20:06:50.223Z,92.20
2019-05-12T20:09:05.448Z,92.20
2019-05-12T20:11:00.042Z,92.00
2019-05-12T20:13:04.264Z,92.20
2019-05-12T20:15:09.324Z,92.30
2019-05-12T20:17:13.182Z,92.10
2019-05-12T20:19:19.891Z,92.20
2019-05-12T20:21:25.912Z,92.20
2019-05-12T20:23:28.113Z,92.40
2019-05-12T20:25:33.979Z,92.30
2019-05-12T20:27:37.542Z,92.40
2019-05-12T20:29:43.332Z,92.40
2019-05-12T20:31:48.752Z,92.40
2019-05-12T20:33:57.504Z,92.60
2019-05-12T20:35:58.082Z,92.70
2019-05-12T20:38:04.165Z,92.70
2019-05-12T20:40:08.083Z,92.70
2019-05-12T20:42:13.997Z,92.70
2019-05-12T20:44:19.902Z,92.70
2019-05-12T20:46:25.844Z,92.80
2019-05-12T20:48:33.775Z,92.70
2019-05-12T20:50:38.810Z,92.80
2019-05-12T20:52:46.408Z,92.80
2019-05-12T20:54:49.195Z,92.70
2019-05-12T20:57:02.274Z,92.60
2019-05-12T20:58:59.250Z,92.80
2019-05-12T21:01:05.158Z,92.60
2019-05-12T21:03:08.813Z,92.70
2019-05-12T21:05:20.056Z,92.90
2019-05-12T21:07:26.841Z,93.00
2019-05-12T21:09:28.182Z,92.70
2019-05-12T21:11:33.830Z,92.80
2019-05-12T21:13:37.539Z,92.60
2019-05-12T21:15:45.132Z,92.60
2019-05-12T21:17:58.401Z,92.40
2019-05-12T21:19:56.923Z,92.40
2019-05-12T21:21:59.168Z,92.60
2019-05-12T21:24:05.085Z,92.70
2019-05-12T21:26:08.995Z,92.50
2019-05-12T21:28:14.898Z,92.40
2019-05-12T21:30:18.846Z,92.50
2019-05-12T21:32:24.069Z,92.40
2019-05-12T21:34:28.138Z,92.40
2019-05-12T21:36:33.848Z,92.40
2019-05-12T21:38:37.546Z,92.30
2019-05-12T21:40:41.475Z,92.90
2019-05-12T21:42:45.497Z,92.40
2019-05-12T21:44:49.442Z,92.50
2019-05-12T21:47:02.609Z,92.60
2019-05-12T21:49:09.897Z,92.60
2019-05-12T21:51:09.690Z,92.60
2019-05-12T21:53:17.673Z,92.70
2019-05-12T21:55:21.469Z,92.60
2019-05-12T21:57:27.544Z,92.70
2019-05-12T21:59:28.907Z,92.60
2019-05-12T22:01:35.101Z,92.80
2019-05-12T22:03:39.558Z,92.80
2019-05-12T22:05:51.579Z,92.60
2019-05-12T22:07:51.751Z,92.80
2019-05-12T22:09:55.751Z,92.80
2019-05-12T22:11:59.683Z,92.80
2019-05-12T22:14:04.629Z,92.80
2019-05-12T22:16:08.753Z,92.80
2019-05-12T22:18:13.236Z,92.70
2019-05-12T22:20:20.218Z,92.80
2019-05-12T22:22:25.703Z,92.70
2019-05-12T22:24:37.079Z,92.80
2019-05-12T22:26:39.633Z,92.40
2019-05-12T22:28:48.734Z,92.50
2019-05-12T22:30:46.586Z,92.60
2019-05-12T22:32:50.751Z,92.70
2019-05-12T22:34:55.039Z,92.80
2019-05-12T22:36:59.418Z,93.20
2019-05-12T22:39:05.089Z,92.60
2019-05-12T22:41:09.095Z,92.60
2019-05-12T22:43:14.215Z,92.70
2019-05-12T22:45:18.359Z,92.60
2019-05-12T22:47:24.049Z,92.50
2019-05-12T22:49:28.066Z,92.60
2019-05-12T22:51:32.001Z,92.90
2019-05-12T22:53:35.953Z,92.90
2019-05-12T22:55:39.802Z,92.50
2019-05-12T22:57:43.770Z,92.50
2019-05-12T22:59:47.616Z,92.70
2019-05-12T23:01:53.987Z,92.60
2019-05-12T23:03:57.077Z,92.40
2019-05-12T23:06:01.739Z,92.70
2019-05-12T23:08:08.350Z,92.70
2019-05-12T23:10:14.291Z,92.70
2019-05-12T23:12:20.350Z,92.90
2019-05-12T23:14:25.111Z,92.60
2019-05-12T23:16:29.485Z,92.70
2019-05-12T23:18:33.735Z,92.80
2019-05-12T23:20:37.714Z,93.00
2019-05-12T23:22:43.672Z,93.10
2019-05-12T23:24:47.085Z,93.10
2019-05-12T23:26:51.042Z,93.10
2019-05-12T23:28:55.032Z,93.10
2019-05-12T23:30:58.882Z,93.10
2019-05-12T23:33:03.812Z,93.00
2019-05-12T23:35:08.111Z,93.00
2019-05-12T23:37:14.021Z,93.00
2019-05-12T23:39:17.480Z,93.10
2019-05-12T23:41:23.659Z,93.10
2019-05-12T23:43:26.877Z,93.20
2019-05-12T23:45:30.743Z,93.20
2019-05-12T23:47:35.000Z,93.00
2019-05-12T23:49:38.869Z,93.10
2019-05-12T23:51:43.884Z,93.10
2019-05-12T23:53:47.874Z,93.00
2019-05-12T23:55:54.016Z,93.00
2019-05-12T23:57:57.360Z,93.00
